sensor_id;sensor_type;location;lat;lon;timestamp;P1;durP1;ratioP1;P2;durP2;ratioP2
27893;SDS011;15240;50.812;4.792;2024-02-04T00:00:03;31.10;;;16.23;;
27893;SDS011;15240;50.812;4.792;2024-02-04T00:02:30;27.50;;;16.17;;
27893;SDS011;15240;50.812;4.792;2024-02-04T00:04:56;28.03;;;16.03;;
27893;SDS011;15240;50.812;4.792;2024-02-04T00:07:23;29.00;;;16.30;;
27893;SDS011;15240;50.812;4.792;2024-02-04T00:09:49;31.90;;;16.17;;
27893;SDS011;15240;50.812;4.792;2024-02-04T00:12:15;28.50;;;16.13;;
27893;SDS011;15240;50.812;4.792;2024-02-04T00:14:42;31.07;;;15.83;;
27893;SDS011;15240;50.812;4.792;2024-02-04T00:17:08;24.93;;;15.37;;
27893;SDS011;15240;50.812;4.792;2024-02-04T00:19:34;28.03;;;14.70;;
27893;SDS011;15240;50.812;4.792;2024-02-04T00:22:00;24.70;;;14.27;;
27893;SDS011;15240;50.812;4.792;2024-02-04T00:24:26;26.43;;;14.90;;
27893;SDS011;15240;50.812;4.792;2024-02-04T00:26:52;31.50;;;14.73;;
27893;SDS011;15240;50.812;4.792;2024-02-04T00:29:18;26.13;;;14.43;;
27893;SDS011;15240;50.812;4.792;2024-02-04T00:31:44;23.87;;;13.13;;
27893;SDS011;15240;50.812;4.792;2024-02-04T00:34:10;23.50;;;12.70;;
27893;SDS011;15240;50.812;4.792;2024-02-04T00:36:36;27.50;;;12.60;;
27893;SDS011;15240;50.812;4.792;2024-02-04T00:39:02;24.10;;;12.40;;
27893;SDS011;15240;50.812;4.792;2024-02-04T00:41:28;21.77;;;10.50;;
27893;SDS011;15240;50.812;4.792;2024-02-04T00:43:55;23.47;;;11.63;;
27893;SDS011;15240;50.812;4.792;2024-02-04T00:46:21;20.77;;;11.10;;
27893;SDS011;15240;50.812;4.792;2024-02-04T00:48:47;19.87;;;10.37;;
27893;SDS011;15240;50.812;4.792;2024-02-04T00:51:13;18.27;;;9.83;;
27893;SDS011;15240;50.812;4.792;2024-02-04T00:53:42;18.50;;;10.97;;
27893;SDS011;15240;50.812;4.792;2024-02-04T00:56:08;18.70;;;10.30;;
27893;SDS011;15240;50.812;4.792;2024-02-04T00:58:36;21.77;;;10.57;;
27893;SDS011;15240;50.812;4.792;2024-02-04T01:01:02;18.47;;;9.27;;
27893;SDS011;15240;50.812;4.792;2024-02-04T01:03:28;21.70;;;9.77;;
27893;SDS011;15240;50.812;4.792;2024-02-04T01:05:54;15.87;;;8.93;;
27893;SDS011;15240;50.812;4.792;2024-02-04T01:08:21;14.90;;;8.57;;
27893;SDS011;15240;50.812;4.792;2024-02-04T01:10:47;15.47;;;8.60;;
27893;SDS011;15240;50.812;4.792;2024-02-04T01:13:16;16.23;;;8.50;;
27893;SDS011;15240;50.812;4.792;2024-02-04T01:15:42;15.03;;;8.20;;
27893;SDS011;15240;50.812;4.792;2024-02-04T01:18:11;15.70;;;8.10;;
27893;SDS011;15240;50.812;4.792;2024-02-04T01:20:37;12.53;;;7.57;;
27893;SDS011;15240;50.812;4.792;2024-02-04T01:23:03;17.23;;;8.80;;
27893;SDS011;15240;50.812;4.792;2024-02-04T01:25:29;17.53;;;8.30;;
27893;SDS011;15240;50.812;4.792;2024-02-04T01:27:55;13.10;;;7.47;;
27893;SDS011;15240;50.812;4.792;2024-02-04T01:30:21;16.83;;;8.40;;
27893;SDS011;15240;50.812;4.792;2024-02-04T01:32:47;15.43;;;7.80;;
27893;SDS011;15240;50.812;4.792;2024-02-04T01:35:14;14.93;;;8.27;;
27893;SDS011;15240;50.812;4.792;2024-02-04T01:37:40;17.03;;;8.07;;
27893;SDS011;15240;50.812;4.792;2024-02-04T01:40:08;16.57;;;8.53;;
27893;SDS011;15240;50.812;4.792;2024-02-04T01:42:36;13.80;;;7.50;;
27893;SDS011;15240;50.812;4.792;2024-02-04T01:45:03;17.77;;;7.77;;
27893;SDS011;15240;50.812;4.792;2024-02-04T01:47:29;17.10;;;7.93;;
27893;SDS011;15240;50.812;4.792;2024-02-04T01:49:55;13.97;;;7.17;;
27893;SDS011;15240;50.812;4.792;2024-02-04T01:52:21;12.30;;;7.13;;
27893;SDS011;15240;50.812;4.792;2024-02-04T01:54:47;18.57;;;8.00;;
27893;SDS011;15240;50.812;4.792;2024-02-04T01:57:13;13.63;;;7.07;;
27893;SDS011;15240;50.812;4.792;2024-02-04T01:59:40;15.50;;;7.70;;
27893;SDS011;15240;50.812;4.792;2024-02-04T02:02:06;15.47;;;7.23;;
27893;SDS011;15240;50.812;4.792;2024-02-04T02:04:32;14.93;;;7.20;;
27893;SDS011;15240;50.812;4.792;2024-02-04T02:06:59;15.13;;;7.20;;
27893;SDS011;15240;50.812;4.792;2024-02-04T02:09:28;16.73;;;7.53;;
27893;SDS011;15240;50.812;4.792;2024-02-04T02:14:32;13.53;;;6.90;;
27893;SDS011;15240;50.812;4.792;2024-02-04T02:17:02;15.30;;;7.13;;
27893;SDS011;15240;50.812;4.792;2024-02-04T02:24:46;11.70;;;6.20;;
27893;SDS011;15240;50.812;4.792;2024-02-04T02:27:12;13.17;;;7.07;;
27893;SDS011;15240;50.812;4.792;2024-02-04T02:29:39;13.50;;;7.13;;
27893;SDS011;15240;50.812;4.792;2024-02-04T02:32:05;13.53;;;6.80;;
27893;SDS011;15240;50.812;4.792;2024-02-04T02:34:31;13.53;;;7.17;;
27893;SDS011;15240;50.812;4.792;2024-02-04T02:37:07;17.07;;;7.80;;
27893;SDS011;15240;50.812;4.792;2024-02-04T02:39:36;13.77;;;6.70;;
27893;SDS011;15240;50.812;4.792;2024-02-04T02:42:04;14.77;;;7.83;;
27893;SDS011;15240;50.812;4.792;2024-02-04T02:44:30;17.10;;;7.30;;
27893;SDS011;15240;50.812;4.792;2024-02-04T02:46:58;14.03;;;7.70;;
27893;SDS011;15240;50.812;4.792;2024-02-04T02:49:25;10.93;;;6.50;;
27893;SDS011;15240;50.812;4.792;2024-02-04T02:51:51;15.37;;;7.77;;
27893;SDS011;15240;50.812;4.792;2024-02-04T02:54:18;15.47;;;7.50;;
27893;SDS011;15240;50.812;4.792;2024-02-04T02:56:44;14.90;;;7.90;;
27893;SDS011;15240;50.812;4.792;2024-02-04T02:59:10;18.20;;;8.03;;
27893;SDS011;15240;50.812;4.792;2024-02-04T03:01:38;14.47;;;7.80;;
27893;SDS011;15240;50.812;4.792;2024-02-04T03:04:04;12.67;;;7.47;;
27893;SDS011;15240;50.812;4.792;2024-02-04T03:06:30;14.63;;;7.83;;
27893;SDS011;15240;50.812;4.792;2024-02-04T03:09:00;18.53;;;8.37;;
27893;SDS011;15240;50.812;4.792;2024-02-04T03:11:29;15.23;;;7.13;;
27893;SDS011;15240;50.812;4.792;2024-02-04T03:13:55;14.07;;;7.37;;
27893;SDS011;15240;50.812;4.792;2024-02-04T03:16:21;16.77;;;7.83;;
27893;SDS011;15240;50.812;4.792;2024-02-04T03:18:47;16.23;;;7.50;;
27893;SDS011;15240;50.812;4.792;2024-02-04T03:21:14;16.43;;;8.33;;
27893;SDS011;15240;50.812;4.792;2024-02-04T03:23:43;16.00;;;8.07;;
27893;SDS011;15240;50.812;4.792;2024-02-04T03:26:09;14.90;;;7.40;;
27893;SDS011;15240;50.812;4.792;2024-02-04T03:28:36;18.43;;;8.40;;
27893;SDS011;15240;50.812;4.792;2024-02-04T03:31:03;17.03;;;7.67;;
27893;SDS011;15240;50.812;4.792;2024-02-04T03:33:29;16.00;;;7.80;;
27893;SDS011;15240;50.812;4.792;2024-02-04T03:35:55;16.73;;;8.00;;
27893;SDS011;15240;50.812;4.792;2024-02-04T03:38:21;16.63;;;8.33;;
27893;SDS011;15240;50.812;4.792;2024-02-04T03:40:47;16.83;;;8.53;;
27893;SDS011;15240;50.812;4.792;2024-02-04T03:43:14;18.00;;;8.10;;
27893;SDS011;15240;50.812;4.792;2024-02-04T03:45:40;18.37;;;8.60;;
27893;SDS011;15240;50.812;4.792;2024-02-04T03:48:06;18.97;;;8.57;;
27893;SDS011;15240;50.812;4.792;2024-02-04T03:50:32;23.20;;;9.07;;
27893;SDS011;15240;50.812;4.792;2024-02-04T03:52:58;19.27;;;8.63;;
27893;SDS011;15240;50.812;4.792;2024-02-04T03:55:24;23.17;;;8.80;;
27893;SDS011;15240;50.812;4.792;2024-02-04T03:57:51;22.87;;;9.60;;
27893;SDS011;15240;50.812;4.792;2024-02-04T04:00:17;20.50;;;8.07;;
27893;SDS011;15240;50.812;4.792;2024-02-04T04:02:43;18.63;;;8.03;;
27893;SDS011;15240;50.812;4.792;2024-02-04T04:05:10;22.03;;;9.87;;
27893;SDS011;15240;50.812;4.792;2024-02-04T04:07:38;20.27;;;8.90;;
27893;SDS011;15240;50.812;4.792;2024-02-04T04:10:05;19.93;;;8.93;;
27893;SDS011;15240;50.812;4.792;2024-02-04T04:12:31;23.67;;;9.83;;
27893;SDS011;15240;50.812;4.792;2024-02-04T04:14:57;24.57;;;10.27;;
27893;SDS011;15240;50.812;4.792;2024-02-04T04:17:23;21.83;;;9.33;;
27893;SDS011;15240;50.812;4.792;2024-02-04T04:19:49;19.73;;;8.50;;
27893;SDS011;15240;50.812;4.792;2024-02-04T04:22:15;19.83;;;8.17;;
27893;SDS011;15240;50.812;4.792;2024-02-04T04:24:41;15.57;;;8.10;;
27893;SDS011;15240;50.812;4.792;2024-02-04T04:27:07;18.67;;;8.03;;
27893;SDS011;15240;50.812;4.792;2024-02-04T04:29:34;20.07;;;8.67;;
27893;SDS011;15240;50.812;4.792;2024-02-04T04:32:00;13.73;;;7.37;;
27893;SDS011;15240;50.812;4.792;2024-02-04T04:34:26;17.03;;;7.07;;
27893;SDS011;15240;50.812;4.792;2024-02-04T04:36:52;16.33;;;6.73;;
27893;SDS011;15240;50.812;4.792;2024-02-04T04:39:18;15.83;;;6.30;;
27893;SDS011;15240;50.812;4.792;2024-02-04T04:41:44;13.37;;;6.40;;
27893;SDS011;15240;50.812;4.792;2024-02-04T04:44:11;16.27;;;6.50;;
27893;SDS011;15240;50.812;4.792;2024-02-04T04:46:38;14.00;;;6.50;;
27893;SDS011;15240;50.812;4.792;2024-02-04T04:49:07;14.20;;;5.70;;
27893;SDS011;15240;50.812;4.792;2024-02-04T04:51:33;14.87;;;5.90;;
27893;SDS011;15240;50.812;4.792;2024-02-04T04:53:59;13.10;;;5.90;;
27893;SDS011;15240;50.812;4.792;2024-02-04T04:56:25;15.20;;;5.73;;
27893;SDS011;15240;50.812;4.792;2024-02-04T04:58:51;16.27;;;6.87;;
27893;SDS011;15240;50.812;4.792;2024-02-04T05:01:17;15.73;;;7.23;;
27893;SDS011;15240;50.812;4.792;2024-02-04T05:03:44;13.17;;;6.43;;
27893;SDS011;15240;50.812;4.792;2024-02-04T05:06:10;17.57;;;6.90;;
27893;SDS011;15240;50.812;4.792;2024-02-04T05:08:36;13.63;;;6.70;;
27893;SDS011;15240;50.812;4.792;2024-02-04T05:11:02;15.33;;;6.63;;
27893;SDS011;15240;50.812;4.792;2024-02-04T05:13:28;20.37;;;7.03;;
27893;SDS011;15240;50.812;4.792;2024-02-04T05:15:54;19.83;;;7.00;;
27893;SDS011;15240;50.812;4.792;2024-02-04T05:18:20;17.77;;;7.07;;
27893;SDS011;15240;50.812;4.792;2024-02-04T05:20:47;18.00;;;7.00;;
27893;SDS011;15240;50.812;4.792;2024-02-04T05:23:13;14.50;;;6.13;;
27893;SDS011;15240;50.812;4.792;2024-02-04T05:25:39;14.70;;;6.47;;
27893;SDS011;15240;50.812;4.792;2024-02-04T05:28:06;14.27;;;5.87;;
27893;SDS011;15240;50.812;4.792;2024-02-04T05:30:32;13.43;;;5.73;;
27893;SDS011;15240;50.812;4.792;2024-02-04T05:32:58;15.40;;;6.67;;
27893;SDS011;15240;50.812;4.792;2024-02-04T05:35:25;17.27;;;6.57;;
27893;SDS011;15240;50.812;4.792;2024-02-04T05:37:51;12.87;;;5.97;;
27893;SDS011;15240;50.812;4.792;2024-02-04T05:40:17;15.13;;;6.20;;
27893;SDS011;15240;50.812;4.792;2024-02-04T05:42:45;15.73;;;6.53;;
27893;SDS011;15240;50.812;4.792;2024-02-04T05:45:11;15.97;;;6.07;;
27893;SDS011;15240;50.812;4.792;2024-02-04T05:47:37;12.80;;;5.77;;
27893;SDS011;15240;50.812;4.792;2024-02-04T05:50:03;11.37;;;6.13;;
27893;SDS011;15240;50.812;4.792;2024-02-04T05:52:29;12.57;;;6.07;;
27893;SDS011;15240;50.812;4.792;2024-02-04T05:54:55;16.23;;;6.07;;
27893;SDS011;15240;50.812;4.792;2024-02-04T05:57:21;16.70;;;6.37;;
27893;SDS011;15240;50.812;4.792;2024-02-04T05:59:47;14.07;;;6.13;;
27893;SDS011;15240;50.812;4.792;2024-02-04T06:02:14;13.13;;;6.20;;
27893;SDS011;15240;50.812;4.792;2024-02-04T06:04:40;17.23;;;6.37;;
27893;SDS011;15240;50.812;4.792;2024-02-04T06:07:06;18.13;;;7.20;;
27893;SDS011;15240;50.812;4.792;2024-02-04T06:09:33;19.60;;;6.90;;
27893;SDS011;15240;50.812;4.792;2024-02-04T06:11:59;15.90;;;7.53;;
27893;SDS011;15240;50.812;4.792;2024-02-04T06:14:26;19.23;;;7.70;;
27893;SDS011;15240;50.812;4.792;2024-02-04T06:16:52;15.90;;;7.67;;
27893;SDS011;15240;50.812;4.792;2024-02-04T06:19:18;20.63;;;8.33;;
27893;SDS011;15240;50.812;4.792;2024-02-04T06:21:44;18.83;;;7.80;;
27893;SDS011;15240;50.812;4.792;2024-02-04T06:24:10;22.80;;;8.17;;
27893;SDS011;15240;50.812;4.792;2024-02-04T06:26:38;21.23;;;8.20;;
27893;SDS011;15240;50.812;4.792;2024-02-04T06:29:04;19.10;;;7.67;;
27893;SDS011;15240;50.812;4.792;2024-02-04T06:31:30;25.60;;;8.03;;
27893;SDS011;15240;50.812;4.792;2024-02-04T06:33:56;21.87;;;8.17;;
27893;SDS011;15240;50.812;4.792;2024-02-04T06:36:23;24.43;;;8.43;;
27893;SDS011;15240;50.812;4.792;2024-02-04T06:38:49;25.17;;;8.70;;
27893;SDS011;15240;50.812;4.792;2024-02-04T06:41:15;23.40;;;8.33;;
27893;SDS011;15240;50.812;4.792;2024-02-04T06:43:41;19.53;;;8.70;;
27893;SDS011;15240;50.812;4.792;2024-02-04T06:46:07;24.87;;;9.47;;
27893;SDS011;15240;50.812;4.792;2024-02-04T06:48:33;21.13;;;8.87;;
27893;SDS011;15240;50.812;4.792;2024-02-04T06:50:59;20.20;;;8.70;;
27893;SDS011;15240;50.812;4.792;2024-02-04T06:53:26;23.77;;;8.17;;
27893;SDS011;15240;50.812;4.792;2024-02-04T06:55:53;23.23;;;7.77;;
27893;SDS011;15240;50.812;4.792;2024-02-04T06:58:19;20.40;;;8.80;;
27893;SDS011;15240;50.812;4.792;2024-02-04T07:00:46;19.60;;;7.40;;
27893;SDS011;15240;50.812;4.792;2024-02-04T07:03:12;19.97;;;7.27;;
27893;SDS011;15240;50.812;4.792;2024-02-04T07:05:38;15.87;;;6.63;;
27893;SDS011;15240;50.812;4.792;2024-02-04T07:08:04;16.10;;;6.10;;
27893;SDS011;15240;50.812;4.792;2024-02-04T07:10:30;16.93;;;7.10;;
27893;SDS011;15240;50.812;4.792;2024-02-04T07:12:56;19.13;;;6.53;;
27893;SDS011;15240;50.812;4.792;2024-02-04T07:15:22;18.80;;;7.23;;
27893;SDS011;15240;50.812;4.792;2024-02-04T07:17:48;16.30;;;6.33;;
27893;SDS011;15240;50.812;4.792;2024-02-04T07:20:14;21.23;;;6.60;;
27893;SDS011;15240;50.812;4.792;2024-02-04T07:22:40;14.47;;;5.87;;
27893;SDS011;15240;50.812;4.792;2024-02-04T07:25:06;18.03;;;6.80;;
27893;SDS011;15240;50.812;4.792;2024-02-04T07:27:33;16.73;;;7.10;;
27893;SDS011;15240;50.812;4.792;2024-02-04T07:29:59;13.63;;;6.40;;
27893;SDS011;15240;50.812;4.792;2024-02-04T07:32:25;14.63;;;6.57;;
27893;SDS011;15240;50.812;4.792;2024-02-04T07:34:51;17.27;;;6.70;;
27893;SDS011;15240;50.812;4.792;2024-02-04T07:37:17;18.27;;;6.70;;
27893;SDS011;15240;50.812;4.792;2024-02-04T07:39:44;15.70;;;6.37;;
27893;SDS011;15240;50.812;4.792;2024-02-04T07:42:10;18.70;;;8.10;;
27893;SDS011;15240;50.812;4.792;2024-02-04T07:44:36;20.30;;;7.80;;
27893;SDS011;15240;50.812;4.792;2024-02-04T07:47:02;18.47;;;8.27;;
27893;SDS011;15240;50.812;4.792;2024-02-04T07:49:28;18.50;;;8.33;;
27893;SDS011;15240;50.812;4.792;2024-02-04T07:51:54;20.23;;;8.87;;
27893;SDS011;15240;50.812;4.792;2024-02-04T07:54:20;23.00;;;8.97;;
27893;SDS011;15240;50.812;4.792;2024-02-04T07:56:47;20.63;;;8.40;;
27893;SDS011;15240;50.812;4.792;2024-02-04T07:59:13;19.93;;;8.70;;
27893;SDS011;15240;50.812;4.792;2024-02-04T08:01:39;22.90;;;9.33;;
27893;SDS011;15240;50.812;4.792;2024-02-04T08:04:05;24.27;;;10.27;;
27893;SDS011;15240;50.812;4.792;2024-02-04T08:06:33;21.10;;;9.07;;
27893;SDS011;15240;50.812;4.792;2024-02-04T08:08:59;21.13;;;9.17;;
27893;SDS011;15240;50.812;4.792;2024-02-04T08:11:25;23.73;;;10.20;;
27893;SDS011;15240;50.812;4.792;2024-02-04T08:13:52;24.03;;;10.07;;
27893;SDS011;15240;50.812;4.792;2024-02-04T08:16:18;24.20;;;9.67;;
27893;SDS011;15240;50.812;4.792;2024-02-04T08:18:45;26.03;;;10.30;;
27893;SDS011;15240;50.812;4.792;2024-02-04T08:21:14;29.00;;;10.13;;
27893;SDS011;15240;50.812;4.792;2024-02-04T08:23:40;20.53;;;9.77;;
27893;SDS011;15240;50.812;4.792;2024-02-04T08:26:06;26.43;;;9.67;;
27893;SDS011;15240;50.812;4.792;2024-02-04T08:28:32;25.93;;;9.93;;
27893;SDS011;15240;50.812;4.792;2024-02-04T08:31:00;24.17;;;9.97;;
27893;SDS011;15240;50.812;4.792;2024-02-04T08:33:26;21.30;;;9.57;;
27893;SDS011;15240;50.812;4.792;2024-02-04T08:35:52;23.50;;;9.70;;
27893;SDS011;15240;50.812;4.792;2024-02-04T08:38:18;21.53;;;9.20;;
27893;SDS011;15240;50.812;4.792;2024-02-04T08:40:44;22.17;;;8.93;;
27893;SDS011;15240;50.812;4.792;2024-02-04T08:43:10;20.27;;;8.53;;
27893;SDS011;15240;50.812;4.792;2024-02-04T08:45:36;20.50;;;7.80;;
27893;SDS011;15240;50.812;4.792;2024-02-04T08:48:02;16.23;;;8.10;;
27893;SDS011;15240;50.812;4.792;2024-02-04T08:50:29;16.90;;;7.53;;
27893;SDS011;15240;50.812;4.792;2024-02-04T08:52:55;18.53;;;7.43;;
27893;SDS011;15240;50.812;4.792;2024-02-04T08:55:21;17.50;;;7.13;;
27893;SDS011;15240;50.812;4.792;2024-02-04T08:57:47;15.00;;;7.30;;
27893;SDS011;15240;50.812;4.792;2024-02-04T09:00:13;15.10;;;6.43;;
27893;SDS011;15240;50.812;4.792;2024-02-04T09:02:42;14.40;;;6.70;;
27893;SDS011;15240;50.812;4.792;2024-02-04T09:05:08;17.57;;;6.93;;
27893;SDS011;15240;50.812;4.792;2024-02-04T09:07:34;15.20;;;7.53;;
27893;SDS011;15240;50.812;4.792;2024-02-04T09:10:00;13.67;;;6.57;;
27893;SDS011;15240;50.812;4.792;2024-02-04T09:12:26;15.27;;;6.90;;
27893;SDS011;15240;50.812;4.792;2024-02-04T09:14:53;12.17;;;6.37;;
27893;SDS011;15240;50.812;4.792;2024-02-04T09:17:19;15.77;;;6.17;;
27893;SDS011;15240;50.812;4.792;2024-02-04T09:19:45;14.20;;;6.33;;
27893;SDS011;15240;50.812;4.792;2024-02-04T09:22:11;13.50;;;5.87;;
27893;SDS011;15240;50.812;4.792;2024-02-04T09:24:37;13.60;;;6.30;;
27893;SDS011;15240;50.812;4.792;2024-02-04T09:27:03;14.77;;;6.77;;
27893;SDS011;15240;50.812;4.792;2024-02-04T09:29:29;14.73;;;5.43;;
27893;SDS011;15240;50.812;4.792;2024-02-04T09:31:55;10.97;;;4.73;;
27893;SDS011;15240;50.812;4.792;2024-02-04T09:34:22;10.40;;;5.20;;
27893;SDS011;15240;50.812;4.792;2024-02-04T09:36:49;8.77;;;5.10;;
27893;SDS011;15240;50.812;4.792;2024-02-04T09:39:18;9.50;;;4.00;;
27893;SDS011;15240;50.812;4.792;2024-02-04T09:41:44;7.93;;;4.57;;
27893;SDS011;15240;50.812;4.792;2024-02-04T09:44:10;9.17;;;4.83;;
27893;SDS011;15240;50.812;4.792;2024-02-04T09:46:37;10.80;;;4.17;;
27893;SDS011;15240;50.812;4.792;2024-02-04T09:49:03;8.50;;;4.73;;
27893;SDS011;15240;50.812;4.792;2024-02-04T09:51:29;10.07;;;3.57;;
27893;SDS011;15240;50.812;4.792;2024-02-04T09:53:56;7.10;;;3.93;;
27893;SDS011;15240;50.812;4.792;2024-02-04T09:56:24;12.00;;;4.00;;
27893;SDS011;15240;50.812;4.792;2024-02-04T09:58:51;8.27;;;3.67;;
27893;SDS011;15240;50.812;4.792;2024-02-04T10:01:18;8.43;;;3.57;;
27893;SDS011;15240;50.812;4.792;2024-02-04T10:03:46;9.73;;;4.10;;
27893;SDS011;15240;50.812;4.792;2024-02-04T10:06:13;7.20;;;3.63;;
27893;SDS011;15240;50.812;4.792;2024-02-04T10:08:39;6.10;;;3.30;;
27893;SDS011;15240;50.812;4.792;2024-02-04T10:11:05;5.53;;;3.47;;
27893;SDS011;15240;50.812;4.792;2024-02-04T10:13:41;7.13;;;3.30;;
27893;SDS011;15240;50.812;4.792;2024-02-04T10:16:08;5.00;;;3.07;;
27893;SDS011;15240;50.812;4.792;2024-02-04T10:18:34;7.50;;;3.60;;
27893;SDS011;15240;50.812;4.792;2024-02-04T10:21:00;6.77;;;3.20;;
27893;SDS011;15240;50.812;4.792;2024-02-04T10:23:26;7.40;;;3.63;;
27893;SDS011;15240;50.812;4.792;2024-02-04T10:25:59;8.17;;;3.70;;
27893;SDS011;15240;50.812;4.792;2024-02-04T10:28:25;7.73;;;4.30;;
27893;SDS011;15240;50.812;4.792;2024-02-04T10:30:52;7.60;;;4.03;;
27893;SDS011;15240;50.812;4.792;2024-02-04T10:33:18;7.17;;;3.80;;
27893;SDS011;15240;50.812;4.792;2024-02-04T10:35:44;7.73;;;4.23;;
27893;SDS011;15240;50.812;4.792;2024-02-04T10:38:10;6.50;;;4.30;;
27893;SDS011;15240;50.812;4.792;2024-02-04T10:40:36;8.90;;;4.30;;
27893;SDS011;15240;50.812;4.792;2024-02-04T10:43:03;8.50;;;4.47;;
27893;SDS011;15240;50.812;4.792;2024-02-04T10:45:32;6.23;;;4.10;;
27893;SDS011;15240;50.812;4.792;2024-02-04T10:47:59;8.63;;;4.37;;
27893;SDS011;15240;50.812;4.792;2024-02-04T10:50:27;9.00;;;4.30;;
27893;SDS011;15240;50.812;4.792;2024-02-04T10:52:54;8.33;;;3.87;;
27893;SDS011;15240;50.812;4.792;2024-02-04T10:55:26;9.23;;;4.17;;
27893;SDS011;15240;50.812;4.792;2024-02-04T10:57:53;7.70;;;4.10;;
27893;SDS011;15240;50.812;4.792;2024-02-04T11:00:20;7.43;;;3.87;;
27893;SDS011;15240;50.812;4.792;2024-02-04T11:02:46;6.53;;;3.80;;
27893;SDS011;15240;50.812;4.792;2024-02-04T11:05:14;7.43;;;3.80;;
27893;SDS011;15240;50.812;4.792;2024-02-04T11:07:42;10.50;;;3.90;;
27893;SDS011;15240;50.812;4.792;2024-02-04T11:10:09;8.27;;;3.57;;
27893;SDS011;15240;50.812;4.792;2024-02-04T11:12:36;6.23;;;3.40;;
27893;SDS011;15240;50.812;4.792;2024-02-04T11:15:04;7.03;;;3.03;;
27893;SDS011;15240;50.812;4.792;2024-02-04T11:28:27;7.47;;;2.70;;
27893;SDS011;15240;50.812;4.792;2024-02-04T11:30:53;6.20;;;2.50;;
27893;SDS011;15240;50.812;4.792;2024-02-04T11:33:21;4.00;;;2.53;;
27893;SDS011;15240;50.812;4.792;2024-02-04T11:35:58;5.93;;;2.63;;
27893;SDS011;15240;50.812;4.792;2024-02-04T11:38:29;6.07;;;2.20;;
27893;SDS011;15240;50.812;4.792;2024-02-04T11:40:55;5.53;;;2.40;;
27893;SDS011;15240;50.812;4.792;2024-02-04T11:43:22;5.47;;;2.20;;
27893;SDS011;15240;50.812;4.792;2024-02-04T11:45:51;6.23;;;2.97;;
27893;SDS011;15240;50.812;4.792;2024-02-04T11:48:19;4.77;;;2.67;;
27893;SDS011;15240;50.812;4.792;2024-02-04T11:50:51;5.37;;;2.40;;
27893;SDS011;15240;50.812;4.792;2024-02-04T11:53:18;4.77;;;2.67;;
27893;SDS011;15240;50.812;4.792;2024-02-04T11:55:44;5.90;;;2.53;;
27893;SDS011;15240;50.812;4.792;2024-02-04T11:58:10;4.67;;;2.03;;
27893;SDS011;15240;50.812;4.792;2024-02-04T12:00:37;4.07;;;2.53;;
27893;SDS011;15240;50.812;4.792;2024-02-04T12:03:04;5.00;;;2.67;;
27893;SDS011;15240;50.812;4.792;2024-02-04T12:05:34;5.03;;;2.73;;
27893;SDS011;15240;50.812;4.792;2024-02-04T12:08:04;6.73;;;3.00;;
27893;SDS011;15240;50.812;4.792;2024-02-04T12:10:30;5.07;;;2.83;;
27893;SDS011;15240;50.812;4.792;2024-02-04T12:12:58;4.30;;;2.40;;
27893;SDS011;15240;50.812;4.792;2024-02-04T12:15:25;5.93;;;2.67;;
27893;SDS011;15240;50.812;4.792;2024-02-04T12:17:51;3.97;;;2.67;;
27893;SDS011;15240;50.812;4.792;2024-02-04T12:20:17;5.27;;;2.77;;
27893;SDS011;15240;50.812;4.792;2024-02-04T12:22:43;5.73;;;2.67;;
27893;SDS011;15240;50.812;4.792;2024-02-04T12:25:10;6.80;;;3.00;;
27893;SDS011;15240;50.812;4.792;2024-02-04T12:27:36;5.83;;;2.77;;
27893;SDS011;15240;50.812;4.792;2024-02-04T12:30:03;5.10;;;2.83;;
27893;SDS011;15240;50.812;4.792;2024-02-04T12:32:30;4.00;;;3.07;;
27893;SDS011;15240;50.812;4.792;2024-02-04T12:34:56;5.03;;;2.97;;
27893;SDS011;15240;50.812;4.792;2024-02-04T12:37:22;6.27;;;3.10;;
27893;SDS011;15240;50.812;4.792;2024-02-04T12:39:49;6.63;;;3.50;;
27893;SDS011;15240;50.812;4.792;2024-02-04T12:42:16;4.63;;;2.60;;
27893;SDS011;15240;50.812;4.792;2024-02-04T12:44:49;7.33;;;2.97;;
27893;SDS011;15240;50.812;4.792;2024-02-04T12:47:20;4.30;;;2.60;;
27893;SDS011;15240;50.812;4.792;2024-02-04T12:49:46;5.13;;;2.83;;
27893;SDS011;15240;50.812;4.792;2024-02-04T12:52:12;3.83;;;2.47;;
27893;SDS011;15240;50.812;4.792;2024-02-04T12:54:42;5.37;;;2.77;;
27893;SDS011;15240;50.812;4.792;2024-02-04T12:57:08;4.57;;;2.57;;
27893;SDS011;15240;50.812;4.792;2024-02-04T12:59:38;5.37;;;2.30;;
27893;SDS011;15240;50.812;4.792;2024-02-04T13:02:07;3.87;;;2.47;;
27893;SDS011;15240;50.812;4.792;2024-02-04T13:04:34;3.33;;;2.73;;
27893;SDS011;15240;50.812;4.792;2024-02-04T13:07:01;4.63;;;2.33;;
27893;SDS011;15240;50.812;4.792;2024-02-04T13:09:27;2.73;;;2.37;;
27893;SDS011;15240;50.812;4.792;2024-02-04T13:12:02;4.43;;;2.27;;
27893;SDS011;15240;50.812;4.792;2024-02-04T13:14:29;4.00;;;2.40;;
27893;SDS011;15240;50.812;4.792;2024-02-04T13:16:55;6.00;;;2.40;;
27893;SDS011;15240;50.812;4.792;2024-02-04T13:19:21;5.17;;;2.53;;
27893;SDS011;15240;50.812;4.792;2024-02-04T13:21:47;2.07;;;1.87;;
27893;SDS011;15240;50.812;4.792;2024-02-04T13:24:13;4.37;;;2.50;;
27893;SDS011;15240;50.812;4.792;2024-02-04T13:26:39;3.80;;;2.27;;
27893;SDS011;15240;50.812;4.792;2024-02-04T13:29:05;2.80;;;2.23;;
27893;SDS011;15240;50.812;4.792;2024-02-04T13:31:32;7.00;;;3.60;;
27893;SDS011;15240;50.812;4.792;2024-02-04T13:33:58;4.03;;;3.00;;
27893;SDS011;15240;50.812;4.792;2024-02-04T13:36:30;4.53;;;2.60;;
27893;SDS011;15240;50.812;4.792;2024-02-04T13:38:57;2.53;;;2.00;;
27893;SDS011;15240;50.812;4.792;2024-02-04T13:41:23;3.47;;;2.17;;
27893;SDS011;15240;50.812;4.792;2024-02-04T13:43:49;3.30;;;1.70;;
27893;SDS011;15240;50.812;4.792;2024-02-04T13:46:15;2.07;;;1.80;;
27893;SDS011;15240;50.812;4.792;2024-02-04T13:48:41;2.53;;;2.00;;
27893;SDS011;15240;50.812;4.792;2024-02-04T13:51:07;4.30;;;2.57;;
27893;SDS011;15240;50.812;4.792;2024-02-04T13:53:33;4.57;;;2.80;;
27893;SDS011;15240;50.812;4.792;2024-02-04T13:56:00;3.27;;;2.50;;
27893;SDS011;15240;50.812;4.792;2024-02-04T13:58:26;3.27;;;2.63;;
27893;SDS011;15240;50.812;4.792;2024-02-04T14:00:52;4.60;;;2.70;;
27893;SDS011;15240;50.812;4.792;2024-02-04T14:03:18;5.10;;;2.70;;
27893;SDS011;15240;50.812;4.792;2024-02-04T14:05:44;5.03;;;2.80;;
27893;SDS011;15240;50.812;4.792;2024-02-04T14:08:11;2.50;;;2.00;;
27893;SDS011;15240;50.812;4.792;2024-02-04T14:10:37;3.20;;;2.00;;
27893;SDS011;15240;50.812;4.792;2024-02-04T14:13:03;3.53;;;2.10;;
27893;SDS011;15240;50.812;4.792;2024-02-04T14:15:30;4.47;;;2.07;;
27893;SDS011;15240;50.812;4.792;2024-02-04T14:17:57;5.17;;;2.30;;
27893;SDS011;15240;50.812;4.792;2024-02-04T14:20:23;3.80;;;2.23;;
27893;SDS011;15240;50.812;4.792;2024-02-04T14:22:49;4.67;;;2.30;;
27893;SDS011;15240;50.812;4.792;2024-02-04T14:25:18;2.67;;;2.00;;
27893;SDS011;15240;50.812;4.792;2024-02-04T14:27:44;3.03;;;2.03;;
27893;SDS011;15240;50.812;4.792;2024-02-04T14:30:10;5.80;;;2.13;;
27893;SDS011;15240;50.812;4.792;2024-02-04T14:32:37;3.57;;;2.03;;
27893;SDS011;15240;50.812;4.792;2024-02-04T14:35:03;6.40;;;2.30;;
27893;SDS011;15240;50.812;4.792;2024-02-04T14:37:29;6.70;;;2.10;;
27893;SDS011;15240;50.812;4.792;2024-02-04T14:39:57;3.13;;;1.93;;
27893;SDS011;15240;50.812;4.792;2024-02-04T14:42:25;7.90;;;2.30;;
27893;SDS011;15240;50.812;4.792;2024-02-04T14:44:52;6.03;;;2.30;;
27893;SDS011;15240;50.812;4.792;2024-02-04T14:47:18;3.17;;;2.17;;
27893;SDS011;15240;50.812;4.792;2024-02-04T14:49:44;3.83;;;2.27;;
27893;SDS011;15240;50.812;4.792;2024-02-04T14:52:10;5.83;;;1.90;;